sensor_id;sensor_type;location;lat;lon;timestamp;pressure;altitude;pressure_sealevel;temperature;humidity
62055;BME280;48653;51.742;-1.256;2024-01-06T00:03:46;100356.69;;;5.71;52.91
62055;BME280;48653;51.742;-1.256;2024-01-06T00:06:12;100359.82;;;6.66;52.65
62055;BME280;48653;51.742;-1.256;2024-01-06T00:08:36;100357.77;;;7.03;53.00
62055;BME280;48653;51.742;-1.256;2024-01-06T00:11:02;100358.56;;;6.90;53.06
62055;BME280;48653;51.742;-1.256;2024-01-06T00:13:27;100361.50;;;6.44;54.14
62055;BME280;48653;51.742;-1.256;2024-01-06T00:15:57;100366.46;;;6.63;54.16
62055;BME280;48653;51.742;-1.256;2024-01-06T00:18:17;100369.08;;;6.23;54.82
62055;BME280;48653;51.742;-1.256;2024-01-06T00:20:47;100372.71;;;7.11;53.47
62055;BME280;48653;51.742;-1.256;2024-01-06T00:23:13;100374.45;;;7.23;53.79
62055;BME280;48653;51.742;-1.256;2024-01-06T00:25:33;100378.17;;;7.15;53.35
62055;BME280;48653;51.742;-1.256;2024-01-06T00:28:03;100384.18;;;6.97;53.45
62055;BME280;48653;51.742;-1.256;2024-01-06T00:30:32;100383.83;;;7.04;53.31
62055;BME280;48653;51.742;-1.256;2024-01-06T00:32:49;100386.34;;;7.30;52.79
62055;BME280;48653;51.742;-1.256;2024-01-06T00:35:19;100390.60;;;6.46;54.26
62055;BME280;48653;51.742;-1.256;2024-01-06T00:37:40;100389.03;;;6.86;53.65
62055;BME280;48653;51.742;-1.256;2024-01-06T00:40:12;100393.30;;;5.84;55.45
62055;BME280;48653;51.742;-1.256;2024-01-06T00:42:35;100392.45;;;6.62;53.92
62055;BME280;48653;51.742;-1.256;2024-01-06T00:45:01;100397.23;;;7.09;54.02
62055;BME280;48653;51.742;-1.256;2024-01-06T00:47:26;100401.55;;;6.16;56.03
62055;BME280;48653;51.742;-1.256;2024-01-06T00:49:46;100403.37;;;6.88;54.85
62055;BME280;48653;51.742;-1.256;2024-01-06T00:52:27;100406.84;;;6.61;55.20
62055;BME280;48653;51.742;-1.256;2024-01-06T00:54:37;100406.29;;;6.57;55.45
62055;BME280;48653;51.742;-1.256;2024-01-06T00:57:04;100407.81;;;6.25;54.91
62055;BME280;48653;51.742;-1.256;2024-01-06T00:59:28;100405.57;;;7.06;53.95
62055;BME280;48653;51.742;-1.256;2024-01-06T01:01:59;100411.12;;;6.55;54.20
62055;BME280;48653;51.742;-1.256;2024-01-06T01:04:19;100412.91;;;6.66;53.98
62055;BME280;48653;51.742;-1.256;2024-01-06T01:06:44;100412.92;;;6.46;54.56
62055;BME280;48653;51.742;-1.256;2024-01-06T01:09:10;100411.57;;;6.14;55.59
62055;BME280;48653;51.742;-1.256;2024-01-06T01:11:40;100413.65;;;6.50;54.64
62055;BME280;48653;51.742;-1.256;2024-01-06T01:14:06;100412.21;;;7.27;54.16
62055;BME280;48653;51.742;-1.256;2024-01-06T01:16:31;100417.10;;;6.56;54.89
62055;BME280;48653;51.742;-1.256;2024-01-06T01:18:56;100418.53;;;6.90;54.34
62055;BME280;48653;51.742;-1.256;2024-01-06T01:21:18;100418.50;;;6.53;55.03
62055;BME280;48653;51.742;-1.256;2024-01-06T01:23:43;100422.35;;;6.70;54.85
62055;BME280;48653;51.742;-1.256;2024-01-06T01:26:12;100426.71;;;6.31;55.30
62055;BME280;48653;51.742;-1.256;2024-01-06T01:28:37;100430.03;;;6.61;55.07
62055;BME280;48653;51.742;-1.256;2024-01-06T01:31:03;100434.99;;;6.52;55.35
62055;BME280;48653;51.742;-1.256;2024-01-06T01:33:26;100437.49;;;6.62;54.55
62055;BME280;48653;51.742;-1.256;2024-01-06T01:35:48;100438.48;;;6.20;54.68
62055;BME280;48653;51.742;-1.256;2024-01-06T01:38:15;100438.93;;;6.51;54.33
62055;BME280;48653;51.742;-1.256;2024-01-06T01:40:39;100441.10;;;7.03;53.68
62055;BME280;48653;51.742;-1.256;2024-01-06T01:43:04;100442.43;;;6.92;53.53
62055;BME280;48653;51.742;-1.256;2024-01-06T01:45:34;100444.04;;;7.14;53.89
62055;BME280;48653;51.742;-1.256;2024-01-06T01:47:55;100442.20;;;6.33;54.86
62055;BME280;48653;51.742;-1.256;2024-01-06T01:50:25;100443.79;;;6.83;54.33
62055;BME280;48653;51.742;-1.256;2024-01-06T01:52:55;100441.00;;;6.09;55.61
62055;BME280;48653;51.742;-1.256;2024-01-06T01:55:11;100443.54;;;6.36;55.36
62055;BME280;48653;51.742;-1.256;2024-01-06T01:57:37;100446.73;;;6.08;55.33
62055;BME280;48653;51.742;-1.256;2024-01-06T02:00:08;100450.77;;;6.33;55.08
62055;BME280;48653;51.742;-1.256;2024-01-06T02:02:32;100456.42;;;6.19;54.56
62055;BME280;48653;51.742;-1.256;2024-01-06T02:04:52;100463.19;;;6.44;55.14
62055;BME280;48653;51.742;-1.256;2024-01-06T02:07:22;100466.04;;;6.80;54.12
62055;BME280;48653;51.742;-1.256;2024-01-06T02:09:43;100467.81;;;7.47;53.36
62055;BME280;48653;51.742;-1.256;2024-01-06T02:12:14;100467.67;;;6.91;54.13
62055;BME280;48653;51.742;-1.256;2024-01-06T02:14:39;100473.26;;;6.42;54.60
62055;BME280;48653;51.742;-1.256;2024-01-06T02:16:59;100477.08;;;6.81;54.54
62055;BME280;48653;51.742;-1.256;2024-01-06T02:19:25;100481.18;;;6.98;53.37
62055;BME280;48653;51.742;-1.256;2024-01-06T02:21:52;100483.21;;;6.51;54.54
62055;BME280;48653;51.742;-1.256;2024-01-06T02:24:16;100482.72;;;5.92;55.10
62055;BME280;48653;51.742;-1.256;2024-01-06T02:26:41;100485.36;;;6.91;54.49
62055;BME280;48653;51.742;-1.256;2024-01-06T02:29:11;100484.88;;;6.39;55.56
62055;BME280;48653;51.742;-1.256;2024-01-06T02:31:37;100490.04;;;6.27;55.22
62055;BME280;48653;51.742;-1.256;2024-01-06T02:33:58;100493.28;;;6.39;55.44
62055;BME280;48653;51.742;-1.256;2024-01-06T02:36:27;100496.23;;;6.63;54.94
62055;BME280;48653;51.742;-1.256;2024-01-06T02:38:53;100502.65;;;5.79;57.29
62055;BME280;48653;51.742;-1.256;2024-01-06T02:41:13;100504.67;;;6.10;56.52
62055;BME280;48653;51.742;-1.256;2024-01-06T02:43:48;100509.35;;;6.17;56.18
62055;BME280;48653;51.742;-1.256;2024-01-06T02:46:09;100510.12;;;6.39;55.51
62055;BME280;48653;51.742;-1.256;2024-01-06T02:48:29;100516.19;;;5.67;57.14
62055;BME280;48653;51.742;-1.256;2024-01-06T02:50:54;100514.40;;;6.16;57.37
62055;BME280;48653;51.742;-1.256;2024-01-06T02:53:24;100515.45;;;6.30;56.42
62055;BME280;48653;51.742;-1.256;2024-01-06T02:55:45;100513.17;;;6.41;55.66
62055;BME280;48653;51.742;-1.256;2024-01-06T02:58:10;100516.02;;;6.63;54.99
62055;BME280;48653;51.742;-1.256;2024-01-06T03:00:35;100520.72;;;6.75;54.93
62055;BME280;48653;51.742;-1.256;2024-01-06T03:03:02;100521.68;;;6.43;54.69
62055;BME280;48653;51.742;-1.256;2024-01-06T03:05:28;100519.54;;;6.26;54.71
62055;BME280;48653;51.742;-1.256;2024-01-06T03:07:53;100527.29;;;6.41;54.66
62055;BME280;48653;51.742;-1.256;2024-01-06T03:10:18;100525.64;;;7.14;53.18
62055;BME280;48653;51.742;-1.256;2024-01-06T03:12:43;100527.45;;;6.71;53.88
62055;BME280;48653;51.742;-1.256;2024-01-06T03:15:23;100533.37;;;6.93;53.20
62055;BME280;48653;51.742;-1.256;2024-01-06T03:17:33;100530.87;;;7.25;52.51
62055;BME280;48653;51.742;-1.256;2024-01-06T03:19:59;100530.71;;;6.05;55.26
62055;BME280;48653;51.742;-1.256;2024-01-06T03:22:24;100533.94;;;6.42;54.74
62055;BME280;48653;51.742;-1.256;2024-01-06T03:24:54;100540.69;;;6.01;56.08
62055;BME280;48653;51.742;-1.256;2024-01-06T03:27:16;100544.98;;;6.04;56.60
62055;BME280;48653;51.742;-1.256;2024-01-06T03:29:41;100548.41;;;6.46;55.52
62055;BME280;48653;51.742;-1.256;2024-01-06T03:32:06;100549.71;;;6.33;55.50
62055;BME280;48653;51.742;-1.256;2024-01-06T03:34:36;100551.37;;;5.99;56.29
62055;BME280;48653;51.742;-1.256;2024-01-06T03:37:04;100547.92;;;6.47;54.79
62055;BME280;48653;51.742;-1.256;2024-01-06T03:39:27;100550.54;;;5.45;56.83
62055;BME280;48653;51.742;-1.256;2024-01-06T03:41:57;100545.64;;;6.14;56.04
62055;BME280;48653;51.742;-1.256;2024-01-06T03:44:18;100546.50;;;6.28;55.76
62055;BME280;48653;51.742;-1.256;2024-01-06T03:46:43;100546.48;;;6.61;55.47
62055;BME280;48653;51.742;-1.256;2024-01-06T03:49:04;100548.21;;;6.53;55.36
62055;BME280;48653;51.742;-1.256;2024-01-06T03:51:29;100549.61;;;6.65;54.38
62055;BME280;48653;51.742;-1.256;2024-01-06T03:53:55;100551.61;;;6.54;54.99
62055;BME280;48653;51.742;-1.256;2024-01-06T03:56:25;100557.33;;;6.11;55.53
62055;BME280;48653;51.742;-1.256;2024-01-06T03:58:46;100561.40;;;5.79;56.09
62055;BME280;48653;51.742;-1.256;2024-01-06T04:01:17;100565.07;;;6.19;55.76
62055;BME280;48653;51.742;-1.256;2024-01-06T04:03:40;100572.95;;;6.11;55.82
62055;BME280;48653;51.742;-1.256;2024-01-06T04:06:07;100577.10;;;6.02;56.40
62055;BME280;48653;51.742;-1.256;2024-01-06T04:08:32;100580.16;;;6.37;55.42
62055;BME280;48653;51.742;-1.256;2024-01-06T04:10:58;100580.18;;;6.84;54.91
62055;BME280;48653;51.742;-1.256;2024-01-06T04:13:23;100583.57;;;6.14;55.97
62055;BME280;48653;51.742;-1.256;2024-01-06T04:15:44;100589.60;;;6.20;54.94
62055;BME280;48653;51.742;-1.256;2024-01-06T04:18:08;100586.87;;;5.90;56.22
62055;BME280;48653;51.742;-1.256;2024-01-06T04:20:35;100587.39;;;5.75;56.38
62055;BME280;48653;51.742;-1.256;2024-01-06T04:22:59;100588.97;;;5.88;56.41
62055;BME280;48653;51.742;-1.256;2024-01-06T04:25:29;100593.48;;;6.78;54.79
62055;BME280;48653;51.742;-1.256;2024-01-06T04:27:49;100595.79;;;5.52;56.58
62055;BME280;48653;51.742;-1.256;2024-01-06T04:30:15;100597.21;;;6.25;55.07
62055;BME280;48653;51.742;-1.256;2024-01-06T04:32:44;100597.95;;;6.30;54.65
62055;BME280;48653;51.742;-1.256;2024-01-06T04:35:10;100599.28;;;6.97;53.30
62055;BME280;48653;51.742;-1.256;2024-01-06T04:37:36;100600.86;;;7.60;52.01
62055;BME280;48653;51.742;-1.256;2024-01-06T04:39:57;100610.93;;;7.19;52.09
62055;BME280;48653;51.742;-1.256;2024-01-06T04:42:22;100609.78;;;7.10;51.90
62055;BME280;48653;51.742;-1.256;2024-01-06T04:44:48;100614.73;;;6.99;52.17
62055;BME280;48653;51.742;-1.256;2024-01-06T04:47:14;100618.98;;;6.70;52.84
62055;BME280;48653;51.742;-1.256;2024-01-06T04:49:39;100621.28;;;7.34;51.66
62055;BME280;48653;51.742;-1.256;2024-01-06T04:52:04;100622.14;;;7.16;51.48
62055;BME280;48653;51.742;-1.256;2024-01-06T04:54:30;100621.48;;;7.53;51.46
62055;BME280;48653;51.742;-1.256;2024-01-06T04:56:55;100625.33;;;7.20;52.02
62055;BME280;48653;51.742;-1.256;2024-01-06T04:59:25;100623.91;;;7.62;50.99
62055;BME280;48653;51.742;-1.256;2024-01-06T05:01:45;100627.68;;;7.77;50.38
62055;BME280;48653;51.742;-1.256;2024-01-06T05:04:11;100627.84;;;7.39;51.33
62055;BME280;48653;51.742;-1.256;2024-01-06T05:06:41;100630.65;;;7.46;51.11
62055;BME280;48653;51.742;-1.256;2024-01-06T05:09:02;100629.47;;;7.61;51.11
62055;BME280;48653;51.742;-1.256;2024-01-06T05:11:28;100631.19;;;7.56;51.14
62055;BME280;48653;51.742;-1.256;2024-01-06T05:13:52;100635.31;;;7.81;51.36
62055;BME280;48653;51.742;-1.256;2024-01-06T05:16:17;100639.12;;;7.62;51.38
62055;BME280;48653;51.742;-1.256;2024-01-06T05:18:43;100644.85;;;7.14;51.95
62055;BME280;48653;51.742;-1.256;2024-01-06T05:21:12;100648.35;;;7.07;52.80
62055;BME280;48653;51.742;-1.256;2024-01-06T05:23:38;100647.92;;;7.01;52.69
62055;BME280;48653;51.742;-1.256;2024-01-06T05:26:00;100647.27;;;7.56;51.77
62055;BME280;48653;51.742;-1.256;2024-01-06T05:28:24;100646.49;;;7.51;51.94
62055;BME280;48653;51.742;-1.256;2024-01-06T05:30:50;100648.55;;;6.98;52.76
62055;BME280;48653;51.742;-1.256;2024-01-06T05:33:25;100651.65;;;7.13;52.39
62055;BME280;48653;51.742;-1.256;2024-01-06T05:35:40;100657.94;;;7.28;52.82
62055;BME280;48653;51.742;-1.256;2024-01-06T05:38:05;100659.51;;;7.12;52.53
62055;BME280;48653;51.742;-1.256;2024-01-06T05:40:30;100669.06;;;6.99;52.84
62055;BME280;48653;51.742;-1.256;2024-01-06T05:43:01;100671.99;;;6.98;52.98
62055;BME280;48653;51.742;-1.256;2024-01-06T05:45:26;100674.38;;;6.68;53.11
62055;BME280;48653;51.742;-1.256;2024-01-06T05:47:47;100676.38;;;6.81;53.16
62055;BME280;48653;51.742;-1.256;2024-01-06T05:50:20;100680.84;;;7.12;52.58
62055;BME280;48653;51.742;-1.256;2024-01-06T05:52:43;100676.93;;;7.87;51.68
62055;BME280;48653;51.742;-1.256;2024-01-06T05:55:08;100685.06;;;6.69;53.12
62055;BME280;48653;51.742;-1.256;2024-01-06T05:57:34;100683.51;;;7.35;51.93
62055;BME280;48653;51.742;-1.256;2024-01-06T05:59:55;100687.51;;;7.03;52.95
62055;BME280;48653;51.742;-1.256;2024-01-06T06:02:20;100689.14;;;6.89;52.54
62055;BME280;48653;51.742;-1.256;2024-01-06T06:04:47;100694.72;;;6.47;53.19
62055;BME280;48653;51.742;-1.256;2024-01-06T06:07:16;100692.96;;;6.61;53.93
62055;BME280;48653;51.742;-1.256;2024-01-06T06:09:42;100694.93;;;6.53;54.12
62055;BME280;48653;51.742;-1.256;2024-01-06T06:12:07;100701.01;;;6.76;53.37
62055;BME280;48653;51.742;-1.256;2024-01-06T06:14:28;100704.89;;;6.96;53.21
62055;BME280;48653;51.742;-1.256;2024-01-06T06:16:58;100710.24;;;5.86;54.99
62055;BME280;48653;51.742;-1.256;2024-01-06T06:19:18;100713.46;;;6.18;54.73
62055;BME280;48653;51.742;-1.256;2024-01-06T06:21:44;100714.00;;;6.73;53.72
62055;BME280;48653;51.742;-1.256;2024-01-06T06:24:14;100722.84;;;5.54;56.27
62055;BME280;48653;51.742;-1.256;2024-01-06T06:26:34;100726.00;;;5.60;56.36
62055;BME280;48653;51.742;-1.256;2024-01-06T06:29:05;100730.08;;;5.82;55.82
62055;BME280;48653;51.742;-1.256;2024-01-06T06:31:25;100730.29;;;5.94;55.00
62055;BME280;48653;51.742;-1.256;2024-01-06T06:33:51;100731.77;;;5.51;56.35
62055;BME280;48653;51.742;-1.256;2024-01-06T06:36:21;100738.51;;;5.71;56.03
62055;BME280;48653;51.742;-1.256;2024-01-06T06:38:41;100743.87;;;5.54;56.09
62055;BME280;48653;51.742;-1.256;2024-01-06T06:41:06;100745.75;;;5.50;55.95
62055;BME280;48653;51.742;-1.256;2024-01-06T06:43:37;100748.74;;;6.03;54.64
62055;BME280;48653;51.742;-1.256;2024-01-06T06:46:04;100748.54;;;5.85;55.59
62055;BME280;48653;51.742;-1.256;2024-01-06T06:48:27;100747.19;;;5.63;55.71
62055;BME280;48653;51.742;-1.256;2024-01-06T06:50:47;100755.14;;;5.62;55.43
62055;BME280;48653;51.742;-1.256;2024-01-06T06:53:18;100761.29;;;6.19;54.74
62055;BME280;48653;51.742;-1.256;2024-01-06T06:55:43;100770.67;;;5.47;54.78
62055;BME280;48653;51.742;-1.256;2024-01-06T06:58:04;100774.38;;;5.62;55.89
62055;BME280;48653;51.742;-1.256;2024-01-06T07:00:31;100779.17;;;4.98;55.90
62055;BME280;48653;51.742;-1.256;2024-01-06T07:03:00;100781.01;;;5.93;54.44
62055;BME280;48653;51.742;-1.256;2024-01-06T07:05:21;100790.05;;;5.72;54.77
62055;BME280;48653;51.742;-1.256;2024-01-06T07:07:52;100797.21;;;4.53;57.09
62055;BME280;48653;51.742;-1.256;2024-01-06T07:10:12;100799.55;;;4.91;56.34
62055;BME280;48653;51.742;-1.256;2024-01-06T07:12:38;100805.49;;;5.84;54.47
62055;BME280;48653;51.742;-1.256;2024-01-06T07:15:05;100812.95;;;5.92;54.67
62055;BME280;48653;51.742;-1.256;2024-01-06T07:17:28;100816.35;;;5.40;55.11
62055;BME280;48653;51.742;-1.256;2024-01-06T07:19:59;100821.36;;;5.35;55.11
62055;BME280;48653;51.742;-1.256;2024-01-06T07:22:20;100826.17;;;6.46;54.04
62055;BME280;48653;51.742;-1.256;2024-01-06T07:24:45;100828.36;;;4.76;56.07
62055;BME280;48653;51.742;-1.256;2024-01-06T07:27:16;100831.76;;;4.73;57.12
62055;BME280;48653;51.742;-1.256;2024-01-06T07:29:37;100837.05;;;4.82;57.11
62055;BME280;48653;51.742;-1.256;2024-01-06T07:32:03;100842.70;;;5.64;55.51
62055;BME280;48653;51.742;-1.256;2024-01-06T07:34:33;100846.99;;;5.76;54.53
62055;BME280;48653;51.742;-1.256;2024-01-06T07:36:59;100849.02;;;5.59;54.94
62055;BME280;48653;51.742;-1.256;2024-01-06T07:39:19;100855.81;;;5.65;55.01
62055;BME280;48653;51.742;-1.256;2024-01-06T07:41:50;100861.89;;;5.53;54.11
62055;BME280;48653;51.742;-1.256;2024-01-06T07:44:15;100867.05;;;4.74;56.63
62055;BME280;48653;51.742;-1.256;2024-01-06T07:46:36;100870.90;;;5.42;54.09
62055;BME280;48653;51.742;-1.256;2024-01-06T07:49:06;100872.54;;;5.27;54.32
62055;BME280;48653;51.742;-1.256;2024-01-06T07:51:32;100872.65;;;5.84;54.09
62055;BME280;48653;51.742;-1.256;2024-01-06T07:53:57;100881.08;;;5.55;54.07
62055;BME280;48653;51.742;-1.256;2024-01-06T07:56:18;100886.13;;;5.82;53.76
62055;BME280;48653;51.742;-1.256;2024-01-06T07:58:48;100891.18;;;5.89;53.45
62055;BME280;48653;51.742;-1.256;2024-01-06T08:01:09;100895.05;;;5.83;53.91
62055;BME280;48653;51.742;-1.256;2024-01-06T08:05:59;100907.68;;;5.50;53.36
62055;BME280;48653;51.742;-1.256;2024-01-06T08:08:25;100905.26;;;5.79;53.04
62055;BME280;48653;51.742;-1.256;2024-01-06T08:10:55;100911.02;;;6.19;52.59
62055;BME280;48653;51.742;-1.256;2024-01-06T08:13:16;100917.53;;;6.64;51.25
62055;BME280;48653;51.742;-1.256;2024-01-06T08:15:46;100917.66;;;5.71;52.98
62055;BME280;48653;51.742;-1.256;2024-01-06T08:18:07;100921.24;;;5.57;53.24
62055;BME280;48653;51.742;-1.256;2024-01-06T08:23:00;100929.82;;;5.10;53.11
62055;BME280;48653;51.742;-1.256;2024-01-06T08:25:22;100935.35;;;5.40;52.63
62055;BME280;48653;51.742;-1.256;2024-01-06T08:27:54;100936.89;;;6.36;51.59
62055;BME280;48653;51.742;-1.256;2024-01-06T08:30:14;100943.89;;;5.64;52.40
62055;BME280;48653;51.742;-1.256;2024-01-06T08:32:43;100946.69;;;6.13;51.44
62055;BME280;48653;51.742;-1.256;2024-01-06T08:35:05;100946.08;;;6.11;51.27
62055;BME280;48653;51.742;-1.256;2024-01-06T08:37:34;100954.60;;;6.35;50.59
62055;BME280;48653;51.742;-1.256;2024-01-06T08:39:55;100955.68;;;6.11;50.92
62055;BME280;48653;51.742;-1.256;2024-01-06T08:42:20;100958.97;;;6.86;50.57
62055;BME280;48653;51.742;-1.256;2024-01-06T08:44:46;100956.97;;;6.32;51.38
62055;BME280;48653;51.742;-1.256;2024-01-06T08:47:12;100959.62;;;5.86;51.85
62055;BME280;48653;51.742;-1.256;2024-01-06T08:49:37;100963.91;;;6.34;51.29
62055;BME280;48653;51.742;-1.256;2024-01-06T08:52:06;100968.87;;;6.71;50.76
62055;BME280;48653;51.742;-1.256;2024-01-06T08:54:32;100967.65;;;6.73;50.89
62055;BME280;48653;51.742;-1.256;2024-01-06T08:56:57;100972.30;;;6.16;51.45
62055;BME280;48653;51.742;-1.256;2024-01-06T08:59:22;100977.54;;;6.49;52.00
62055;BME280;48653;51.742;-1.256;2024-01-06T09:01:43;100979.92;;;7.17;50.61
62055;BME280;48653;51.742;-1.256;2024-01-06T09:04:08;100989.13;;;6.54;51.14
62055;BME280;48653;51.742;-1.256;2024-01-06T09:06:33;100996.45;;;6.36;51.22
62055;BME280;48653;51.742;-1.256;2024-01-06T09:08:59;100995.38;;;6.42;51.45
62055;BME280;48653;51.742;-1.256;2024-01-06T09:11:23;101002.27;;;6.51;50.13
62055;BME280;48653;51.742;-1.256;2024-01-06T09:13:48;101008.53;;;6.72;50.08
62055;BME280;48653;51.742;-1.256;2024-01-06T09:21:05;101014.56;;;6.72;49.61
62055;BME280;48653;51.742;-1.256;2024-01-06T09:23:37;101019.80;;;6.45;49.93
62055;BME280;48653;51.742;-1.256;2024-01-06T09:25:56;101026.31;;;6.80;48.97
62055;BME280;48653;51.742;-1.256;2024-01-06T09:28:19;101031.62;;;7.03;48.93
62055;BME280;48653;51.742;-1.256;2024-01-06T09:30:51;101036.08;;;7.00;48.99
62055;BME280;48653;51.742;-1.256;2024-01-06T09:33:16;101035.97;;;6.72;49.36
62055;BME280;48653;51.742;-1.256;2024-01-06T09:35:37;101043.12;;;6.99;49.07
62055;BME280;48653;51.742;-1.256;2024-01-06T09:38:02;101043.23;;;6.44;49.70
62055;BME280;48653;51.742;-1.256;2024-01-06T09:40:27;101046.42;;;6.94;49.38
62055;BME280;48653;51.742;-1.256;2024-01-06T09:42:51;101048.12;;;5.51;51.65
62055;BME280;48653;51.742;-1.256;2024-01-06T09:45:17;101048.67;;;6.53;50.62
62055;BME280;48653;51.742;-1.256;2024-01-06T09:47:42;101053.15;;;6.52;49.54
62055;BME280;48653;51.742;-1.256;2024-01-06T09:50:09;101051.68;;;6.55;49.19
62055;BME280;48653;51.742;-1.256;2024-01-06T09:52:33;101055.45;;;6.44;49.28
62055;BME280;48653;51.742;-1.256;2024-01-06T09:54:57;101060.52;;;6.73;49.37
62055;BME280;48653;51.742;-1.256;2024-01-06T09:57:24;101066.01;;;6.08;49.64
62055;BME280;48653;51.742;-1.256;2024-01-06T09:59:49;101071.32;;;4.96;52.05
62055;BME280;48653;51.742;-1.256;2024-01-06T10:02:15;101075.04;;;5.87;50.79
62055;BME280;48653;51.742;-1.256;2024-01-06T10:04:45;101078.43;;;5.82;50.89
62055;BME280;48653;51.742;-1.256;2024-01-06T10:07:05;101084.48;;;5.65;50.50
62055;BME280;48653;51.742;-1.256;2024-01-06T10:09:30;101087.94;;;5.48;52.07
62055;BME280;48653;51.742;-1.256;2024-01-06T10:11:56;101084.99;;;5.57;51.60
62055;BME280;48653;51.742;-1.256;2024-01-06T10:14:25;101088.14;;;4.88;53.88
62055;BME280;48653;51.742;-1.256;2024-01-06T10:16:47;101096.27;;;5.23;52.66
62055;BME280;48653;51.742;-1.256;2024-01-06T10:19:12;101092.34;;;5.86;52.46
62055;BME280;48653;51.742;-1.256;2024-01-06T10:21:42;101096.74;;;5.80;52.62
62055;BME280;48653;51.742;-1.256;2024-01-06T10:24:08;101097.16;;;5.76;52.12
62055;BME280;48653;51.742;-1.256;2024-01-06T10:26:27;101101.95;;;5.12;53.53
62055;BME280;48653;51.742;-1.256;2024-01-06T10:28:52;101107.00;;;5.98;51.17
62055;BME280;48653;51.742;-1.256;2024-01-06T10:31:18;101108.01;;;5.82;52.80
62055;BME280;48653;51.742;-1.256;2024-01-06T10:33:44;101103.29;;;6.16;51.65
62055;BME280;48653;51.742;-1.256;2024-01-06T10:36:10;101106.24;;;5.50;52.77
62055;BME280;48653;51.742;-1.256;2024-01-06T10:38:34;101108.88;;;5.47;53.72
62055;BME280;48653;51.742;-1.256;2024-01-06T10:41:01;101104.83;;;5.31;53.46
62055;BME280;48653;51.742;-1.256;2024-01-06T10:43:26;101104.87;;;5.32;53.94
62055;BME280;48653;51.742;-1.256;2024-01-06T10:45:50;101106.69;;;5.01;54.47
62055;BME280;48653;51.742;-1.256;2024-01-06T10:48:16;101107.37;;;5.17;53.61
62055;BME280;48653;51.742;-1.256;2024-01-06T10:50:40;101113.72;;;5.48;53.42
62055;BME280;48653;51.742;-1.256;2024-01-06T10:53:06;101114.03;;;5.64;53.05
62055;BME280;48653;51.742;-1.256;2024-01-06T10:55:43;101112.62;;;5.63;52.63
62055;BME280;48653;51.742;-1.256;2024-01-06T10:57:57;101117.96;;;6.14;51.63
62055;BME280;48653;51.742;-1.256;2024-01-06T11:00:22;101114.60;;;6.33;50.68
62055;BME280;48653;51.742;-1.256;2024-01-06T11:02:48;101113.46;;;6.58;50.25
62055;BME280;48653;51.742;-1.256;2024-01-06T11:05:13;101120.74;;;6.23;50.72
62055;BME280;48653;51.742;-1.256;2024-01-06T11:07:39;101126.20;;;5.63;52.03
62055;BME280;48653;51.742;-1.256;2024-01-06T11:10:08;101126.99;;;5.83;51.70
62055;BME280;48653;51.742;-1.256;2024-01-06T11:12:29;101125.69;;;5.61;51.91
62055;BME280;48653;51.742;-1.256;2024-01-06T11:14:54;101129.56;;;5.00;53.44
62055;BME280;48653;51.742;-1.256;2024-01-06T11:19:50;101128.97;;;5.53;52.25
62055;BME280;48653;51.742;-1.256;2024-01-06T11:22:24;101128.28;;;5.42;53.27
62055;BME280;48653;51.742;-1.256;2024-01-06T11:24:36;101128.18;;;5.45;52.61
62055;BME280;48653;51.742;-1.256;2024-01-06T11:27:01;101129.10;;;5.81;51.67
62055;BME280;48653;51.742;-1.256;2024-01-06T11:29:27;101131.90;;;6.70;50.74
62055;BME280;48653;51.742;-1.256;2024-01-06T11:34:23;101134.10;;;5.85;52.09
62055;BME280;48653;51.742;-1.256;2024-01-06T11:36:45;101132.24;;;5.73;51.44
62055;BME280;48653;51.742;-1.256;2024-01-06T11:41:51;101142.50;;;5.01;53.17
62055;BME280;48653;51.742;-1.256;2024-01-06T11:44:01;101140.88;;;5.86;51.45
62055;BME280;48653;51.742;-1.256;2024-01-06T11:46:25;101140.77;;;6.08;51.09
62055;BME280;48653;51.742;-1.256;2024-01-06T11:48:51;101139.31;;;5.17;52.95
62055;BME280;48653;51.742;-1.256;2024-01-06T11:51:20;101135.97;;;6.69;49.84
62055;BME280;48653;51.742;-1.256;2024-01-06T11:53:45;101134.84;;;6.70;49.51
62055;BME280;48653;51.742;-1.256;2024-01-06T11:56:07;101132.54;;;7.15;49.05
62055;BME280;48653;51.742;-1.256;2024-01-06T11:58:32;101134.82;;;6.76;48.98
62055;BME280;48653;51.742;-1.256;2024-01-06T12:00:56;101131.65;;;6.78;48.78
62055;BME280;48653;51.742;-1.256;2024-01-06T12:03:22;101134.43;;;7.30;48.99
62055;BME280;48653;51.742;-1.256;2024-01-06T12:06:02;101134.83;;;6.76;49.00
62055;BME280;48653;51.742;-1.256;2024-01-06T12:08:14;101133.80;;;7.10;48.64
62055;BME280;48653;51.742;-1.256;2024-01-06T12:10:44;101132.91;;;6.92;48.48
62055;BME280;48653;51.742;-1.256;2024-01-06T12:13:13;101135.11;;;6.53;49.20
62055;BME280;48653;51.742;-1.256;2024-01-06T12:15:35;101133.94;;;6.97;47.96
62055;BME280;48653;51.742;-1.256;2024-01-06T12:17:56;101133.68;;;7.18;48.24
62055;BME280;48653;51.742;-1.256;2024-01-06T12:20:21;101130.07;;;6.61;49.21
62055;BME280;48653;51.742;-1.256;2024-01-06T12:22:46;101129.71;;;6.89;49.21
62055;BME280;48653;51.742;-1.256;2024-01-06T12:25:11;101130.48;;;6.28;50.12
62055;BME280;48653;51.742;-1.256;2024-01-06T12:27:43;101130.74;;;6.70;49.60
62055;BME280;48653;51.742;-1.256;2024-01-06T12:30:02;101133.29;;;7.03;49.14
62055;BME280;48653;51.742;-1.256;2024-01-06T12:32:29;101129.57;;;6.08;49.89
62055;BME280;48653;51.742;-1.256;2024-01-06T12:35:03;101131.64;;;7.23;48.80
62055;BME280;48653;51.742;-1.256;2024-01-06T12:37:24;101136.13;;;7.07;48.37
62055;BME280;48653;51.742;-1.256;2024-01-06T12:39:47;101134.72;;;7.43;47.97
62055;BME280;48653;51.742;-1.256;2024-01-06T12:42:15;101138.76;;;7.44;48.32
62055;BME280;48653;51.742;-1.256;2024-01-06T12:44:35;101141.56;;;7.13;48.16
62055;BME280;48653;51.742;-1.256;2024-01-06T12:47:00;101139.44;;;7.39;48.38
62055;BME280;48653;51.742;-1.256;2024-01-06T12:49:32;101136.76;;;6.25;50.60
62055;BME280;48653;51.742;-1.256;2024-01-06T12:51:51;101139.03;;;7.01;49.54
62055;BME280;48653;51.742;-1.256;2024-01-06T12:54:31;101143.04;;;6.91;48.77
62055;BME280;48653;51.742;-1.256;2024-01-06T12:56:41;101148.81;;;5.56;51.66
62055;BME280;48653;51.742;-1.256;2024-01-06T12:59:08;101143.19;;;6.05;51.20